createdAt,value
2022-08-22T00:00:13.507Z,9.80
2022-08-22T00:02:41.880Z,19.88
2022-08-22T00:03:08.326Z,10.55
2022-08-22T00:03:11.649Z,15.90
2022-08-22T00:03:11.734Z,10.20
2022-08-22T00:03:17.566Z,10.15
2022-08-22T00:05:59.582Z,10.02
2022-08-22T00:08:55.043Z,11.88
2022-08-22T00:11:34.982Z,8.63
2022-08-22T00:14:39.921Z,7.90
2022-08-22T00:17:23.652Z,11.38
2022-08-22T00:23:10.168Z,8.52
2022-08-22T00:25:43.875Z,10.23
2022-08-22T00:28:22.798Z,11.18
2022-08-22T00:30:59.981Z,12.00
2022-08-22T00:33:46.465Z,8.25
2022-08-22T00:36:47.944Z,11.13
2022-08-22T00:39:32.737Z,8.73
2022-08-22T00:42:04.469Z,8.32
2022-08-22T00:44:41.728Z,10.45
2022-08-22T00:47:19.919Z,16.98
2022-08-22T00:50:04.739Z,11.93
2022-08-22T00:52:42.146Z,14.35
2022-08-22T00:55:35.065Z,16.42
2022-08-22T00:58:27.765Z,13.77
2022-08-22T01:01:01.148Z,30.15
2022-08-22T01:06:27.131Z,10.60
2022-08-22T01:09:24.436Z,12.48
2022-08-22T01:12:25.882Z,12.05
2022-08-22T01:15:00.779Z,10.80
2022-08-22T01:17:45.695Z,13.60
2022-08-22T01:20:19.788Z,14.10
2022-08-22T01:23:13.666Z,19.30
2022-08-22T01:28:47.384Z,31.85
2022-08-22T01:31:42.826Z,11.65
2022-08-22T01:34:23.288Z,25.60
2022-08-22T01:37:27.692Z,11.93
2022-08-22T01:40:14.037Z,11.93
2022-08-22T01:42:53.962Z,14.35
2022-08-22T01:45:43.033Z,10.38
2022-08-22T01:48:16.690Z,15.25
2022-08-22T01:50:58.734Z,16.42
2022-08-22T01:53:41.022Z,10.98
2022-08-22T01:56:16.669Z,9.60
2022-08-22T01:59:03.731Z,10.68
2022-08-22T02:01:40.649Z,14.38
2022-08-22T02:04:29.146Z,17.23
2022-08-22T02:07:29.163Z,11.70
2022-08-22T02:10:06.673Z,17.58
2022-08-22T02:12:53.718Z,12.40
2022-08-22T02:15:22.790Z,12.45
2022-08-22T02:18:06.115Z,13.55
2022-08-22T02:20:49.458Z,13.60
2022-08-22T02:23:47.175Z,17.45
2022-08-22T02:26:20.746Z,13.80
2022-08-22T02:29:12.754Z,17.88
2022-08-22T02:32:01.750Z,14.45
2022-08-22T02:34:54.123Z,12.48
2022-08-22T02:37:55.380Z,19.75
2022-08-22T02:40:35.029Z,13.48
2022-08-22T02:43:27.863Z,12.10
2022-08-22T02:46:01.449Z,17.67
2022-08-22T02:48:37.615Z,11.90
2022-08-22T02:51:28.764Z,11.82
2022-08-22T02:53:59.380Z,16.08
2022-08-22T02:56:30.195Z,16.42
2022-08-22T02:59:28.190Z,14.20
2022-08-22T03:01:57.088Z,17.27
2022-08-22T03:04:25.109Z,27.17
2022-08-22T03:07:17.191Z,15.35
2022-08-22T03:10:06.069Z,14.55
2022-08-22T03:12:43.018Z,16.23
2022-08-22T03:15:35.950Z,18.45
2022-08-22T03:18:25.437Z,17.02
2022-08-22T03:20:56.487Z,12.65
2022-08-22T03:23:37.427Z,17.55
2022-08-22T03:26:29.586Z,18.23
2022-08-22T03:29:10.893Z,16.33
2022-08-22T03:31:39.383Z,15.55
2022-08-22T03:34:25.592Z,18.63
2022-08-22T03:37:18.297Z,28.95
2022-08-22T03:39:55.142Z,15.85
2022-08-22T03:42:44.790Z,18.92
2022-08-22T03:45:44.035Z,16.60
2022-08-22T03:48:25.491Z,20.75
2022-08-22T03:51:01.111Z,22.27
2022-08-22T03:53:35.090Z,16.27
2022-08-22T03:59:10.147Z,16.33
2022-08-22T04:01:59.062Z,15.98
2022-08-22T04:04:50.123Z,14.30
2022-08-22T04:07:39.161Z,13.25
2022-08-22T04:10:39.894Z,21.73
2022-08-22T04:13:24.767Z,20.13
2022-08-22T04:16:04.845Z,16.05
2022-08-22T04:18:41.790Z,19.60
2022-08-22T04:21:28.090Z,22.65
2022-08-22T04:24:34.219Z,15.95
2022-08-22T04:27:45.371Z,24.52
2022-08-22T04:30:26.883Z,25.13
2022-08-22T04:33:08.052Z,16.90
2022-08-22T04:35:52.790Z,19.10
2022-08-22T04:38:40.159Z,16.85
2022-08-22T04:41:15.075Z,22.20
2022-08-22T04:43:48.105Z,22.95
2022-08-22T04:46:32.103Z,17.60
2022-08-22T04:49:26.863Z,16.20
2022-08-22T04:52:29.436Z,23.85
2022-08-22T04:55:09.687Z,22.40
2022-08-22T04:58:18.595Z,17.67
2022-08-22T05:01:09.904Z,14.98
2022-08-22T05:03:44.979Z,15.70
2022-08-22T05:06:14.354Z,15.73
2022-08-22T05:08:45.805Z,19.42
2022-08-22T05:11:19.476Z,15.82
2022-08-22T05:14:07.132Z,22.75
2022-08-22T05:16:48.986Z,15.98
2022-08-22T05:19:28.391Z,18.75
2022-08-22T05:21:59.468Z,22.80
2022-08-22T05:24:43.055Z,21.00
2022-08-22T05:27:26.282Z,25.15
2022-08-22T05:30:06.287Z,17.63
2022-08-22T05:33:00.666Z,24.75
2022-08-22T05:35:36.536Z,18.98
2022-08-22T05:38:08.032Z,25.90
2022-08-22T05:40:37.734Z,20.13
2022-08-22T05:43:07.216Z,21.05
2022-08-22T05:45:35.805Z,21.35
2022-08-22T05:48:07.563Z,20.45
2022-08-22T05:50:38.288Z,29.00
2022-08-22T05:53:32.336Z,22.00
2022-08-22T05:56:37.216Z,23.55
2022-08-22T06:01:43.680Z,22.90
2022-08-22T06:04:54.021Z,19.25
2022-08-22T06:07:28.878Z,17.27
2022-08-22T06:10:08.781Z,16.35
2022-08-22T06:12:43.118Z,19.17
2022-08-22T06:15:21.029Z,18.88
2022-08-22T06:17:52.390Z,21.08
2022-08-22T06:20:28.714Z,21.10
2022-08-22T06:23:00.520Z,22.33
2022-08-22T06:25:36.339Z,19.70
2022-08-22T06:28:13.731Z,21.67
2022-08-22T06:30:41.988Z,17.88
2022-08-22T06:33:14.739Z,22.00
2022-08-22T06:35:50.304Z,18.67
2022-08-22T06:38:20.201Z,28.35
2022-08-22T06:40:49.983Z,19.63
2022-08-22T06:43:18.623Z,24.55
2022-08-22T06:45:50.278Z,21.77
2022-08-22T06:48:20.671Z,23.67
2022-08-22T06:50:53.030Z,24.52
2022-08-22T06:53:48.176Z,22.77
2022-08-22T06:56:27.606Z,23.40
2022-08-22T06:59:00.768Z,22.40
2022-08-22T07:01:34.302Z,18.33
2022-08-22T07:04:08.507Z,26.70
2022-08-22T07:06:38.290Z,18.80
2022-08-22T07:09:16.197Z,25.35
2022-08-22T07:11:47.198Z,17.27
2022-08-22T07:14:28.969Z,18.85
2022-08-22T07:17:07.722Z,17.48
2022-08-22T07:19:38.992Z,16.85
2022-08-22T07:22:26.715Z,21.80
2022-08-22T07:25:20.862Z,22.75
2022-08-22T07:28:06.937Z,20.80
2022-08-22T07:30:52.377Z,22.38
2022-08-22T07:33:39.161Z,20.17
2022-08-22T07:36:23.268Z,21.85
2022-08-22T07:39:11.207Z,26.85
2022-08-22T07:42:02.254Z,23.13
2022-08-22T07:45:02.030Z,27.30
2022-08-22T07:48:10.916Z,20.25
2022-08-22T07:50:47.534Z,25.27
2022-08-22T07:53:35.750Z,21.80
2022-08-22T07:56:08.998Z,27.20
2022-08-22T07:58:39.451Z,19.45
2022-08-22T08:01:15.243Z,19.83
2022-08-22T08:03:47.175Z,19.50
2022-08-22T08:06:15.311Z,17.60
2022-08-22T08:08:45.479Z,20.00
2022-08-22T08:11:18.474Z,26.52
2022-08-22T08:13:48.954Z,21.30
2022-08-22T08:16:28.254Z,21.08
2022-08-22T08:18:58.404Z,18.00
2022-08-22T08:21:34.127Z,21.63
2022-08-22T08:24:03.982Z,20.73
2022-08-22T08:26:48.144Z,21.08
2022-08-22T08:29:18.307Z,24.10
2022-08-22T08:31:50.583Z,19.13
2022-08-22T08:34:25.413Z,20.90
2022-08-22T08:37:12.878Z,28.92
2022-08-22T08:39:46.088Z,20.50
2022-08-22T08:42:25.932Z,20.87
2022-08-22T08:45:18.669Z,18.13
2022-08-22T08:48:10.803Z,23.23
2022-08-22T08:50:45.278Z,23.08
2022-08-22T08:53:51.273Z,24.83
2022-08-22T08:56:54.250Z,28.00
2022-08-22T08:59:43.155Z,19.15
2022-08-22T09:02:35.779Z,18.30
2022-08-22T09:05:37.338Z,22.17
2022-08-22T09:08:14.331Z,23.65
2022-08-22T09:14:27.185Z,20.42
2022-08-22T09:17:19.437Z,20.50
2022-08-22T09:20:26.267Z,21.17
2022-08-22T09:23:35.898Z,20.77
2022-08-22T09:26:20.431Z,25.95
2022-08-22T09:28:59.074Z,23.67
2022-08-22T09:31:44.807Z,20.30
2022-08-22T09:34:23.962Z,24.10
2022-08-22T09:37:05.425Z,20.48
2022-08-22T09:39:51.483Z,18.90
2022-08-22T09:40:16.098Z,29.08
2022-08-22T09:42:30.250Z,20.73
2022-08-22T09:45:19.748Z,17.55
2022-08-22T09:48:06.354Z,19.52
2022-08-22T09:51:20.010Z,22.23
2022-08-22T09:54:16.170Z,28.20
2022-08-22T09:56:46.910Z,24.20
2022-08-22T09:59:26.568Z,21.58
2022-08-22T10:01:55.085Z,18.08
2022-08-22T10:04:40.327Z,22.13
2022-08-22T10:07:13.369Z,23.00
2022-08-22T10:10:04.444Z,16.27
2022-08-22T10:13:14.255Z,20.77
2022-08-22T10:16:17.291Z,21.85
2022-08-22T10:19:09.069Z,24.27
2022-08-22T10:21:42.527Z,22.15
2022-08-22T10:24:54.741Z,22.63
2022-08-22T10:27:54.867Z,24.42
2022-08-22T10:30:43.998Z,18.08
2022-08-22T10:33:34.715Z,16.70
2022-08-22T10:36:12.280Z,35.63
2022-08-22T10:38:59.162Z,29.50
2022-08-22T10:41:58.070Z,19.65
2022-08-22T10:44:40.271Z,28.23
2022-08-22T10:47:22.762Z,24.83
2022-08-22T10:49:53.428Z,24.02
2022-08-22T10:52:56.498Z,19.85
2022-08-22T10:55:31.492Z,26.13
2022-08-22T10:58:10.477Z,22.63
2022-08-22T11:00:55.084Z,28.95
2022-08-22T11:03:41.259Z,27.05
2022-08-22T11:06:30.740Z,26.23
2022-08-22T11:09:09.613Z,28.85
2022-08-22T11:11:57.048Z,24.88
2022-08-22T11:14:48.681Z,27.33
2022-08-22T11:17:32.443Z,29.35
2022-08-22T11:20:32.315Z,21.90
2022-08-22T11:23:21.572Z,25.45
2022-08-22T11:26:07.798Z,21.30
2022-08-22T11:29:14.148Z,30.55
2022-08-22T11:31:51.569Z,23.52
2022-08-22T11:34:34.942Z,32.33
2022-08-22T11:37:43.020Z,33.78
2022-08-22T11:40:37.735Z,39.75
2022-08-22T11:43:32.510Z,32.25
2022-08-22T11:46:20.012Z,25.40
2022-08-22T11:49:06.436Z,27.17
2022-08-22T11:51:58.012Z,24.67
2022-08-22T11:54:54.633Z,25.38
2022-08-22T11:57:31.364Z,30.67
2022-08-22T12:00:08.875Z,25.60
2022-08-22T12:02:48.981Z,24.50
2022-08-22T12:05:26.241Z,28.08
2022-08-22T12:08:31.561Z,27.05
2022-08-22T12:11:00.189Z,27.95
2022-08-22T12:13:40.520Z,29.10
2022-08-22T12:16:24.049Z,25.58
2022-08-22T12:21:23.765Z,36.25
2022-08-22T12:24:21.246Z,36.70
2022-08-22T12:27:08.747Z,39.67
2022-08-22T12:29:45.889Z,27.05
2022-08-22T12:32:45.733Z,28.52
2022-08-22T12:35:17.006Z,29.60
2022-08-22T12:38:11.858Z,29.38
2022-08-22T12:41:00.583Z,37.47
2022-08-22T12:43:49.667Z,29.77
2022-08-22T12:46:37.840Z,28.67
2022-08-22T12:49:37.143Z,36.55
2022-08-22T12:52:24.169Z,37.03
2022-08-22T12:54:54.965Z,32.90
2022-08-22T12:57:40.423Z,30.42
2022-08-22T13:00:17.765Z,28.55
2022-08-22T13:02:56.238Z,29.17
2022-08-22T13:05:27.038Z,28.38
2022-08-22T13:08:02.408Z,29.15
2022-08-22T13:10:57.470Z,30.40
2022-08-22T13:13:40.967Z,32.83
2022-08-22T13:16:14.470Z,26.53
2022-08-22T13:18:53.479Z,31.10
2022-08-22T13:21:32.132Z,26.80
2022-08-22T13:24:12.686Z,27.08
2022-08-22T13:27:05.643Z,32.92
2022-08-22T13:29:45.903Z,37.28
2022-08-22T13:32:33.619Z,40.38
2022-08-22T13:35:03.605Z,22.38
2022-08-22T13:37:39.139Z,23.83
2022-08-22T13:40:15.414Z,28.27
2022-08-22T13:42:54.185Z,25.00
2022-08-22T13:45:29.201Z,24.73
2022-08-22T13:48:03.802Z,27.90
2022-08-22T13:50:53.405Z,30.88
2022-08-22T13:53:32.795Z,26.17
2022-08-22T13:56:08.155Z,27.63
2022-08-22T13:59:07.636Z,31.67
2022-08-22T14:01:54.063Z,33.92
2022-08-22T14:07:04.597Z,30.60
2022-08-22T14:09:54.390Z,36.63
2022-08-22T14:12:50.054Z,22.65
2022-08-22T14:15:26.702Z,24.83
2022-08-22T14:18:30.375Z,25.00
2022-08-22T14:21:20.042Z,39.80
2022-08-22T14:23:52.355Z,29.35
2022-08-22T14:26:37.312Z,28.35
2022-08-22T14:29:18.689Z,34.15
2022-08-22T14:31:58.369Z,26.02
2022-08-22T14:34:27.690Z,30.73
2022-08-22T14:37:08.978Z,27.55
2022-08-22T14:39:56.337Z,29.02
2022-08-22T14:42:34.142Z,32.42
2022-08-22T14:45:30.245Z,27.88
2022-08-22T14:48:30.396Z,30.55
2022-08-22T14:50:53.485Z,24.98
2022-08-22T14:53:29.620Z,29.17
2022-08-22T14:56:06.381Z,35.08
2022-08-22T14:58:47.144Z,33.80
2022-08-22T15:01:19.588Z,30.17
2022-08-22T15:04:11.787Z,39.63
2022-08-22T15:06:47.683Z,38.25
2022-08-22T15:09:40.580Z,25.08
2022-08-22T15:12:38.671Z,31.90
2022-08-22T15:15:29.297Z,30.33
2022-08-22T15:18:05.373Z,25.13
2022-08-22T15:20:49.081Z,31.58
2022-08-22T15:23:23.146Z,35.53
2022-08-22T15:26:04.051Z,32.05
2022-08-22T15:28:53.327Z,30.27
2022-08-22T15:31:22.054Z,27.42
2022-08-22T15:33:51.295Z,22.35
2022-08-22T15:36:26.088Z,22.17
2022-08-22T15:39:31.322Z,21.85
2022-08-22T15:42:05.491Z,23.00
2022-08-22T15:44:39.243Z,23.73
2022-08-22T15:47:27.691Z,30.52
2022-08-22T15:50:05.864Z,26.67
2022-08-22T15:52:59.124Z,26.60
2022-08-22T15:55:34.395Z,22.77
2022-08-22T15:58:13.217Z,25.33
2022-08-22T16:01:18.916Z,20.60
2022-08-22T16:04:09.084Z,23.45
2022-08-22T16:06:53.847Z,23.95
2022-08-22T16:09:36.515Z,24.23
2022-08-22T16:12:09.278Z,23.55
2022-08-22T16:14:37.243Z,20.85
2022-08-22T16:17:27.767Z,23.13
2022-08-22T16:20:20.009Z,24.17
2022-08-22T16:22:57.774Z,21.63
2022-08-22T16:25:47.148Z,27.67
2022-08-22T16:29:02.552Z,26.92
2022-08-22T16:31:32.616Z,24.17
2022-08-22T16:34:19.007Z,32.92
2022-08-22T16:36:51.931Z,22.70
2022-08-22T16:39:22.957Z,20.33
2022-08-22T16:42:15.496Z,22.60
2022-08-22T16:44:56.798Z,20.42
2022-08-22T16:47:24.769Z,27.10
2022-08-22T16:49:52.723Z,19.05
2022-08-22T16:52:26.617Z,20.30
2022-08-22T16:57:54.470Z,22.92
2022-08-22T17:00:40.299Z,26.85
2022-08-22T17:03:17.620Z,21.48
2022-08-22T17:06:17.972Z,20.88
2022-08-22T17:08:51.604Z,25.17
2022-08-22T17:11:30.720Z,21.17
2022-08-22T17:14:28.825Z,19.40
2022-08-22T17:17:08.499Z,18.73
2022-08-22T17:20:17.875Z,21.30
2022-08-22T17:22:45.859Z,21.83
2022-08-22T17:25:33.299Z,15.93
2022-08-22T17:28:25.018Z,17.17
2022-08-22T17:31:14.085Z,24.42
2022-08-22T17:33:42.059Z,20.05
2022-08-22T17:36:26.837Z,20.63
2022-08-22T17:39:04.130Z,15.63
2022-08-22T17:41:38.251Z,17.95
2022-08-22T17:44:20.317Z,17.38
2022-08-22T17:47:03.985Z,14.32
2022-08-22T17:49:45.231Z,19.15
2022-08-22T17:52:41.286Z,15.35
2022-08-22T17:55:19.655Z,24.92
2022-08-22T17:57:56.958Z,19.10
2022-08-22T18:00:31.855Z,18.80
2022-08-22T18:03:14.955Z,16.95
2022-08-22T18:06:31.906Z,12.82
2022-08-22T18:09:17.066Z,15.00
2022-08-22T18:11:57.529Z,21.17
2022-08-22T18:14:41.154Z,18.05
2022-08-22T18:17:20.266Z,20.65
2022-08-22T18:19:54.359Z,13.73
2022-08-22T18:22:27.715Z,14.05
2022-08-22T18:25:19.422Z,16.63
2022-08-22T18:27:52.710Z,11.45
2022-08-22T18:30:23.590Z,13.38
2022-08-22T18:33:20.310Z,14.50
2022-08-22T18:35:56.518Z,11.48
2022-08-22T18:38:32.298Z,9.63
2022-08-22T18:41:10.277Z,9.90
2022-08-22T18:43:51.363Z,12.45
2022-08-22T18:46:32.658Z,10.48
2022-08-22T18:49:20.746Z,11.98
2022-08-22T18:52:07.226Z,13.00
2022-08-22T18:54:48.551Z,12.95
2022-08-22T18:57:40.289Z,13.18
2022-08-22T19:00:21.843Z,11.15
2022-08-22T19:03:05.106Z,10.73
2022-08-22T19:05:51.667Z,13.73
2022-08-22T19:08:40.831Z,12.25
2022-08-22T19:11:27.125Z,9.65
2022-08-22T19:14:22.175Z,10.23
2022-08-22T19:17:05.816Z,8.10
2022-08-22T19:19:42.993Z,10.73
2022-08-22T19:22:30.385Z,12.75
2022-08-22T19:25:10.249Z,7.90
2022-08-22T19:27:40.875Z,9.48
2022-08-22T19:30:34.596Z,12.50
2022-08-22T19:33:06.419Z,9.68
2022-08-22T19:35:39.153Z,8.85
2022-08-22T19:38:09.481Z,8.57
2022-08-22T19:40:46.618Z,7.70
2022-08-22T19:43:35.334Z,9.65
2022-08-22T19:46:07.077Z,8.27
2022-08-22T19:48:45.750Z,10.57
2022-08-22T19:51:29.649Z,12.73
2022-08-22T19:56:58.903Z,8.55
2022-08-22T19:59:39.203Z,8.23
2022-08-22T20:02:50.142Z,9.98
2022-08-22T20:05:26.073Z,14.95
2022-08-22T20:08:08.656Z,13.95
2022-08-22T20:10:36.649Z,8.52
2022-08-22T20:13:12.229Z,9.55
2022-08-22T20:16:12.801Z,7.80
2022-08-22T20:19:08.441Z,8.07
2022-08-22T20:22:15.763Z,7.25
2022-08-22T20:25:17.193Z,10.93
2022-08-22T20:28:08.219Z,12.07
2022-08-22T20:30:45.107Z,7.90
2022-08-22T20:33:25.929Z,14.13
2022-08-22T20:35:56.502Z,10.93
2022-08-22T20:38:32.819Z,14.25
2022-08-22T20:41:13.492Z,14.60
2022-08-22T20:43:51.315Z,10.57
2022-08-22T20:46:47.765Z,8.20
2022-08-22T20:49:23.491Z,15.35
2022-08-22T20:51:53.159Z,14.57
2022-08-22T20:54:28.223Z,14.27
2022-08-22T20:57:02.361Z,16.45
2022-08-22T20:59:35.034Z,12.82
2022-08-22T21:02:34.969Z,21.03
2022-08-22T21:05:04.055Z,16.50
2022-08-22T21:07:37.941Z,17.55
2022-08-22T21:10:10.307Z,22.50
2022-08-22T21:12:38.315Z,24.88
2022-08-22T21:15:06.766Z,10.00
2022-08-22T21:17:39.101Z,15.90
2022-08-22T21:20:22.247Z,12.00
2022-08-22T21:22:50.810Z,14.05
2022-08-22T21:25:21.189Z,15.82
2022-08-22T21:27:49.647Z,13.02
2022-08-22T21:30:26.232Z,12.45
2022-08-22T21:32:56.108Z,18.33
2022-08-22T21:35:34.751Z,23.92
2022-08-22T21:38:03.076Z,18.38
2022-08-22T21:40:39.289Z,15.73
2022-08-22T21:43:12.847Z,14.45
2022-08-22T21:49:05.654Z,13.40
2022-08-22T21:51:44.391Z,18.75
2022-08-22T21:54:25.513Z,15.40
2022-08-22T21:56:56.227Z,22.83
2022-08-22T21:59:43.099Z,16.40
2022-08-22T22:02:35.308Z,16.27
2022-08-22T22:05:11.672Z,20.85
2022-08-22T22:07:42.117Z,19.35
2022-08-22T22:10:17.362Z,22.83
2022-08-22T22:12:46.974Z,10.13
2022-08-22T22:15:21.951Z,16.73
2022-08-22T22:17:50.859Z,14.00
2022-08-22T22:20:23.406Z,20.30
2022-08-22T22:22:51.550Z,50.85
2022-08-22T22:25:39.684Z,20.17
2022-08-22T22:28:21.625Z,20.25
2022-08-22T22:30:52.914Z,29.77
2022-08-22T22:33:31.832Z,25.92
2022-08-22T22:36:05.770Z,25.08
2022-08-22T22:38:33.897Z,39.92
2022-08-22T22:41:07.119Z,16.90
2022-08-22T22:43:35.484Z,13.68
2022-08-22T22:46:03.530Z,13.52
2022-08-22T22:48:31.576Z,15.35
2022-08-22T22:51:00.028Z,16.67
2022-08-22T22:53:38.156Z,12.20
2022-08-22T22:56:09.914Z,15.45
2022-08-22T22:58:38.954Z,15.80
2022-08-22T23:01:17.131Z,24.95
2022-08-22T23:03:45.941Z,33.90
2022-08-22T23:06:19.960Z,21.55
2022-08-22T23:08:53.370Z,23.30
2022-08-22T23:11:27.383Z,19.50
2022-08-22T23:13:58.001Z,19.02
2022-08-22T23:16:29.211Z,16.15
2022-08-22T23:18:58.488Z,9.52
2022-08-22T23:21:29.421Z,10.65
2022-08-22T23:24:05.411Z,8.13
2022-08-22T23:26:33.533Z,6.65
2022-08-22T23:29:07.004Z,4.10
2022-08-22T23:31:53.080Z,6.00
2022-08-22T23:34:26.623Z,5.15
2022-08-22T23:36:58.173Z,3.20
2022-08-22T23:39:30.496Z,10.07
2022-08-22T23:41:59.306Z,18.02
2022-08-22T23:44:30.251Z,9.73
2022-08-22T23:46:59.075Z,12.43
2022-08-22T23:49:28.187Z,10.60
2022-08-22T23:51:56.531Z,11.93
2022-08-22T23:54:25.966Z,5.78
2022-08-22T23:56:58.819Z,3.92
2022-08-22T23:59:31.483Z,8.63
